首页
METAR-TAF:

METAR-TAF

机场 :

North Las Vegas Airport

北拉斯維加斯, 内华达州, 美国

纬度: 36-12-42N, 经度: 115-11-45W, 海拔: 672米

当前天气观测

该预报发布于1小时和0分钟前的20:53 UTC
风速3节,风向多变
温度 19°C
湿度 16%
气压 1026 hPa
能見度: 16.1公里
天空无云

METAR: KVGT 272053Z VRB03KT 10SM CLR 19/M07 A3031 RMK AO2 SLP279 T01891067 58022 $

时间: 13:53 (21:53 UTC)

预报

该预报发布于4小时和33分钟前的17:20 UTC
预报有效从27日的 18点(UTC)到 28日的 18点(UTC)
风速5节,风向东转东南
能見度: 10公里
少量云层高于25000英尺
从 28日的 0400点(UTC)
风速6节,风向北转西北
能見度: 10公里
多云层高于25000英尺

TAF: KVGT 271720Z 2718/2818 11005KT P6SM FEW250 FM280400 33006KT P6SM BKN250

超过4000个机场的气象观测和天气预报(METAR&TAF报告)。

可查询的气象台以黄色和红色小点在地图上表示。

将鼠标移到小点上方,可查看气象台名称。

然后点击查看天气观测和预报。

如需切换地图:点击带黑十字的绿色按钮放大地图;点击带横线的绿色按钮缩小地图;或者点击绿色箭头查看邻近地区的地图。


METAR-TAF: